DAAG/ALG METAR and TAF weather

Enter ICAO airport designator
Station Type Date Time Source
DAAG METAR 2019/06/20 07:00 UTC NOAA

DAAG 200700Z 25005KT 220V280 9999 FEW026 BKN200 22/17 Q1014


Station Type Date Time Source
DAAG Decoded METAR 2019/06/20 07:00 UTC NOAA

Dar-El-Beida, Algeria (DAAG) 36-43N 003-15E 25M
Jun 20, 2019 - 03:00 AM EDT / 2019.06.20 0700 UTC
Wind: from the WSW (250 degrees) at 6 MPH (5 KT) (direction variable):0
Visibility: greater than 7 mile(s):0
Sky conditions: mostly cloudy
Temperature: 71 F (22 C)
Dew Point: 62 F (17 C)
Relative Humidity: 73%
Pressure (altimeter): 29.94 in. Hg (1014 hPa)
ob: DAAG 200700Z 25005KT 220V280 9999 FEW026 BKN200 22/17 Q1014
cycle: 7

Station Type Date Time Source
DAAG TAF 2019/06/20 06:33 UTC NOAA

TAF TAF DAAG 200500Z 2006/2106 VRB02KT 9999 FEW026 SCT100
BECMG 2010/2012 02010KT
BECMG 2018/2021 VRB02KT
TEMPO 2021/2102 5000 -TSRA FEW030CB PROB30
TEMPO 2003/2006 BKN015

Example: see airport list